sensor_id;sensor_type;location;lat;lon;timestamp;temperature;humidity
4922;DHT22;16625;53.624;10.106;2023-08-06T00:01:14;16.10;99.90
4922;DHT22;16625;53.624;10.106;2023-08-06T00:03:41;16.10;99.90
4922;DHT22;16625;53.624;10.106;2023-08-06T00:06:08;16.10;99.90
4922;DHT22;16625;53.624;10.106;2023-08-06T00:08:35;16.00;99.90
4922;DHT22;16625;53.624;10.106;2023-08-06T00:11:04;16.00;99.90
4922;DHT22;16625;53.624;10.106;2023-08-06T00:13:31;16.00;99.90
4922;DHT22;16625;53.624;10.106;2023-08-06T00:16:08;16.00;99.90
4922;DHT22;16625;53.624;10.106;2023-08-06T00:18:35;16.00;99.90
4922;DHT22;16625;53.624;10.106;2023-08-06T00:21:03;15.90;99.90
4922;DHT22;16625;53.624;10.106;2023-08-06T00:23:30;15.90;99.90
4922;DHT22;16625;53.624;10.106;2023-08-06T00:25:57;15.90;99.90
4922;DHT22;16625;53.624;10.106;2023-08-06T00:28:25;15.80;99.90
4922;DHT22;16625;53.624;10.106;2023-08-06T00:30:53;15.80;99.90
4922;DHT22;16625;53.624;10.106;2023-08-06T00:33:20;15.80;99.90
4922;DHT22;16625;53.624;10.106;2023-08-06T00:35:47;15.80;99.90
4922;DHT22;16625;53.624;10.106;2023-08-06T00:38:14;15.70;99.90
4922;DHT22;16625;53.624;10.106;2023-08-06T00:40:42;15.70;99.90
4922;DHT22;16625;53.624;10.106;2023-08-06T00:43:10;15.70;99.90
4922;DHT22;16625;53.624;10.106;2023-08-06T00:45:38;15.70;99.90
4922;DHT22;16625;53.624;10.106;2023-08-06T00:48:06;15.60;99.90
4922;DHT22;16625;53.624;10.106;2023-08-06T00:50:33;15.60;99.90
4922;DHT22;16625;53.624;10.106;2023-08-06T00:53:01;15.60;99.90
4922;DHT22;16625;53.624;10.106;2023-08-06T00:55:29;15.60;99.90
4922;DHT22;16625;53.624;10.106;2023-08-06T00:57:56;15.60;99.90
4922;DHT22;16625;53.624;10.106;2023-08-06T01:00:24;15.60;99.90
4922;DHT22;16625;53.624;10.106;2023-08-06T01:02:53;15.50;99.90
4922;DHT22;16625;53.624;10.106;2023-08-06T01:05:20;15.50;99.90
4922;DHT22;16625;53.624;10.106;2023-08-06T01:07:56;15.40;99.90
4922;DHT22;16625;53.624;10.106;2023-08-06T01:10:40;15.50;99.90
4922;DHT22;16625;53.624;10.106;2023-08-06T01:13:17;15.40;99.90
4922;DHT22;16625;53.624;10.106;2023-08-06T01:15:46;15.40;99.90
4922;DHT22;16625;53.624;10.106;2023-08-06T01:18:18;15.30;99.90
4922;DHT22;16625;53.624;10.106;2023-08-06T01:20:46;15.30;99.90
4922;DHT22;16625;53.624;10.106;2023-08-06T01:23:15;15.30;99.90
4922;DHT22;16625;53.624;10.106;2023-08-06T01:25:49;15.30;99.90
4922;DHT22;16625;53.624;10.106;2023-08-06T01:28:22;15.20;99.90
4922;DHT22;16625;53.624;10.106;2023-08-06T01:30:50;15.30;99.90
4922;DHT22;16625;53.624;10.106;2023-08-06T01:33:21;15.30;99.90
4922;DHT22;16625;53.624;10.106;2023-08-06T01:35:54;15.30;99.90
4922;DHT22;16625;53.624;10.106;2023-08-06T01:38:22;15.20;99.90
4922;DHT22;16625;53.624;10.106;2023-08-06T01:40:49;15.20;99.90
4922;DHT22;16625;53.624;10.106;2023-08-06T01:43:16;15.20;99.90
4922;DHT22;16625;53.624;10.106;2023-08-06T01:45:43;15.10;99.90
4922;DHT22;16625;53.624;10.106;2023-08-06T01:48:10;15.20;99.90
4922;DHT22;16625;53.624;10.106;2023-08-06T01:50:37;15.20;99.90
4922;DHT22;16625;53.624;10.106;2023-08-06T01:53:05;15.00;99.90
4922;DHT22;16625;53.624;10.106;2023-08-06T01:55:32;15.10;99.90
4922;DHT22;16625;53.624;10.106;2023-08-06T01:57:59;15.00;99.90
4922;DHT22;16625;53.624;10.106;2023-08-06T02:00:26;14.90;99.90
4922;DHT22;16625;53.624;10.106;2023-08-06T02:02:54;15.00;99.90
4922;DHT22;16625;53.624;10.106;2023-08-06T02:05:21;14.90;99.90
4922;DHT22;16625;53.624;10.106;2023-08-06T02:07:48;14.90;99.90
4922;DHT22;16625;53.624;10.106;2023-08-06T02:10:16;14.90;99.90
4922;DHT22;16625;53.624;10.106;2023-08-06T02:12:43;14.90;99.90
4922;DHT22;16625;53.624;10.106;2023-08-06T02:15:10;14.80;99.90
4922;DHT22;16625;53.624;10.106;2023-08-06T02:17:37;14.80;99.90
4922;DHT22;16625;53.624;10.106;2023-08-06T02:20:06;14.80;99.90
4922;DHT22;16625;53.624;10.106;2023-08-06T02:22:33;14.70;99.90
4922;DHT22;16625;53.624;10.106;2023-08-06T02:25:00;14.70;99.90
4922;DHT22;16625;53.624;10.106;2023-08-06T02:27:28;14.70;99.90
4922;DHT22;16625;53.624;10.106;2023-08-06T02:29:55;14.70;99.90
4922;DHT22;16625;53.624;10.106;2023-08-06T02:32:22;14.70;99.90
4922;DHT22;16625;53.624;10.106;2023-08-06T02:34:49;14.70;99.90
4922;DHT22;16625;53.624;10.106;2023-08-06T02:37:16;14.60;99.90
4922;DHT22;16625;53.624;10.106;2023-08-06T02:39:43;14.60;99.90
4922;DHT22;16625;53.624;10.106;2023-08-06T02:42:11;14.60;99.90
4922;DHT22;16625;53.624;10.106;2023-08-06T02:44:39;14.60;99.90
4922;DHT22;16625;53.624;10.106;2023-08-06T02:47:06;14.60;99.90
4922;DHT22;16625;53.624;10.106;2023-08-06T02:49:33;14.60;99.90
4922;DHT22;16625;53.624;10.106;2023-08-06T02:52:00;14.60;99.90
4922;DHT22;16625;53.624;10.106;2023-08-06T02:54:27;14.60;99.90
4922;DHT22;16625;53.624;10.106;2023-08-06T02:56:54;14.00;99.90
4922;DHT22;16625;53.624;10.106;2023-08-06T02:59:21;14.50;99.90
4922;DHT22;16625;53.624;10.106;2023-08-06T03:01:50;14.50;99.90
4922;DHT22;16625;53.624;10.106;2023-08-06T03:04:17;14.40;99.90
4922;DHT22;16625;53.624;10.106;2023-08-06T03:06:44;14.40;99.90
4922;DHT22;16625;53.624;10.106;2023-08-06T03:09:11;14.50;99.90
4922;DHT22;16625;53.624;10.106;2023-08-06T03:11:38;14.40;99.90
4922;DHT22;16625;53.624;10.106;2023-08-06T03:14:05;14.40;99.90
4922;DHT22;16625;53.624;10.106;2023-08-06T03:16:32;14.40;99.90
4922;DHT22;16625;53.624;10.106;2023-08-06T03:19:01;14.40;99.90
4922;DHT22;16625;53.624;10.106;2023-08-06T03:21:28;14.40;99.90
4922;DHT22;16625;53.624;10.106;2023-08-06T03:23:55;14.40;99.90
4922;DHT22;16625;53.624;10.106;2023-08-06T03:26:22;14.40;99.90
4922;DHT22;16625;53.624;10.106;2023-08-06T03:28:49;14.30;99.90
4922;DHT22;16625;53.624;10.106;2023-08-06T03:31:16;14.40;99.90
4922;DHT22;16625;53.624;10.106;2023-08-06T03:33:43;14.30;99.90
4922;DHT22;16625;53.624;10.106;2023-08-06T03:36:12;14.40;99.90
4922;DHT22;16625;53.624;10.106;2023-08-06T03:38:40;14.30;99.90
4922;DHT22;16625;53.624;10.106;2023-08-06T03:41:07;14.30;99.90
4922;DHT22;16625;53.624;10.106;2023-08-06T03:43:34;14.30;99.90
4922;DHT22;16625;53.624;10.106;2023-08-06T03:46:01;14.30;99.90
4922;DHT22;16625;53.624;10.106;2023-08-06T03:48:29;14.30;99.90
4922;DHT22;16625;53.624;10.106;2023-08-06T03:50:56;14.30;99.90
4922;DHT22;16625;53.624;10.106;2023-08-06T03:53:24;14.30;99.90
4922;DHT22;16625;53.624;10.106;2023-08-06T03:55:51;14.20;99.90
4922;DHT22;16625;53.624;10.106;2023-08-06T03:58:18;14.20;99.90
4922;DHT22;16625;53.624;10.106;2023-08-06T04:00:45;14.30;99.90
4922;DHT22;16625;53.624;10.106;2023-08-06T04:03:12;14.20;99.90
4922;DHT22;16625;53.624;10.106;2023-08-06T04:05:39;14.20;99.90
4922;DHT22;16625;53.624;10.106;2023-08-06T04:08:06;14.30;99.90
4922;DHT22;16625;53.624;10.106;2023-08-06T04:10:35;14.20;99.90
4922;DHT22;16625;53.624;10.106;2023-08-06T04:13:02;14.20;99.90
4922;DHT22;16625;53.624;10.106;2023-08-06T04:15:29;14.80;99.90
4922;DHT22;16625;53.624;10.106;2023-08-06T04:17:56;14.20;99.90
4922;DHT22;16625;53.624;10.106;2023-08-06T04:20:23;14.20;99.90
4922;DHT22;16625;53.624;10.106;2023-08-06T04:22:50;14.20;99.90
4922;DHT22;16625;53.624;10.106;2023-08-06T04:25:17;14.20;99.90
4922;DHT22;16625;53.624;10.106;2023-08-06T04:27:48;14.20;99.90
4922;DHT22;16625;53.624;10.106;2023-08-06T04:30:15;14.20;99.90
4922;DHT22;16625;53.624;10.106;2023-08-06T04:32:42;14.20;99.90
4922;DHT22;16625;53.624;10.106;2023-08-06T04:35:09;14.20;99.90
4922;DHT22;16625;53.624;10.106;2023-08-06T04:37:36;14.20;99.90
4922;DHT22;16625;53.624;10.106;2023-08-06T04:40:04;14.20;99.90
4922;DHT22;16625;53.624;10.106;2023-08-06T04:42:31;14.20;99.90
4922;DHT22;16625;53.624;10.106;2023-08-06T04:45:01;14.20;99.90
4922;DHT22;16625;53.624;10.106;2023-08-06T04:47:28;14.30;99.90
4922;DHT22;16625;53.624;10.106;2023-08-06T04:49:55;14.20;99.90
4922;DHT22;16625;53.624;10.106;2023-08-06T04:52:22;14.20;99.90
4922;DHT22;16625;53.624;10.106;2023-08-06T04:54:53;14.20;99.90
4922;DHT22;16625;53.624;10.106;2023-08-06T04:57:20;14.30;99.90
4922;DHT22;16625;53.624;10.106;2023-08-06T04:59:47;14.30;99.90
4922;DHT22;16625;53.624;10.106;2023-08-06T05:02:16;14.30;99.90
4922;DHT22;16625;53.624;10.106;2023-08-06T05:04:43;14.30;99.90
4922;DHT22;16625;53.624;10.106;2023-08-06T05:07:10;14.30;99.90
4922;DHT22;16625;53.624;10.106;2023-08-06T05:09:38;14.30;99.90
4922;DHT22;16625;53.624;10.106;2023-08-06T05:12:06;14.30;99.90
4922;DHT22;16625;53.624;10.106;2023-08-06T05:14:33;14.30;99.90
4922;DHT22;16625;53.624;10.106;2023-08-06T05:17:00;14.40;99.90
4922;DHT22;16625;53.624;10.106;2023-08-06T05:19:31;14.40;99.90
4922;DHT22;16625;53.624;10.106;2023-08-06T05:21:58;14.40;99.90
4922;DHT22;16625;53.624;10.106;2023-08-06T05:24:26;14.50;99.90
4922;DHT22;16625;53.624;10.106;2023-08-06T05:26:53;14.50;99.90
4922;DHT22;16625;53.624;10.106;2023-08-06T05:29:20;14.50;99.90
4922;DHT22;16625;53.624;10.106;2023-08-06T05:31:47;14.60;99.90
4922;DHT22;16625;53.624;10.106;2023-08-06T05:34:14;14.60;99.90
4922;DHT22;16625;53.624;10.106;2023-08-06T05:36:43;14.60;99.90
4922;DHT22;16625;53.624;10.106;2023-08-06T05:39:10;14.70;99.90
4922;DHT22;16625;53.624;10.106;2023-08-06T05:41:37;14.70;99.90
4922;DHT22;16625;53.624;10.106;2023-08-06T05:44:04;14.80;99.90
4922;DHT22;16625;53.624;10.106;2023-08-06T05:46:31;14.80;99.90
4922;DHT22;16625;53.624;10.106;2023-08-06T05:48:58;14.90;99.90
4922;DHT22;16625;53.624;10.106;2023-08-06T05:51:26;15.00;99.90
4922;DHT22;16625;53.624;10.106;2023-08-06T05:53:55;15.00;99.90
4922;DHT22;16625;53.624;10.106;2023-08-06T05:56:22;15.00;99.90
4922;DHT22;16625;53.624;10.106;2023-08-06T05:58:49;15.10;99.90
4922;DHT22;16625;53.624;10.106;2023-08-06T06:01:18;15.20;99.90
4922;DHT22;16625;53.624;10.106;2023-08-06T06:03:45;15.00;99.90
4922;DHT22;16625;53.624;10.106;2023-08-06T06:06:12;15.10;99.90
4922;DHT22;16625;53.624;10.106;2023-08-06T06:08:39;15.10;99.90
4922;DHT22;16625;53.624;10.106;2023-08-06T06:11:08;15.20;99.90
4922;DHT22;16625;53.624;10.106;2023-08-06T06:13:35;15.20;99.90
4922;DHT22;16625;53.624;10.106;2023-08-06T06:16:02;15.20;99.90
4922;DHT22;16625;53.624;10.106;2023-08-06T06:18:29;15.20;99.90
4922;DHT22;16625;53.624;10.106;2023-08-06T06:20:56;15.20;99.90
4922;DHT22;16625;53.624;10.106;2023-08-06T06:23:23;15.30;99.90
4922;DHT22;16625;53.624;10.106;2023-08-06T06:25:50;15.40;99.90
4922;DHT22;16625;53.624;10.106;2023-08-06T06:28:19;15.40;99.90
4922;DHT22;16625;53.624;10.106;2023-08-06T06:30:47;15.40;99.90
4922;DHT22;16625;53.624;10.106;2023-08-06T06:33:14;15.50;99.90
4922;DHT22;16625;53.624;10.106;2023-08-06T06:35:41;15.50;99.90
4922;DHT22;16625;53.624;10.106;2023-08-06T06:38:08;15.50;99.90
4922;DHT22;16625;53.624;10.106;2023-08-06T06:40:35;15.50;99.90
4922;DHT22;16625;53.624;10.106;2023-08-06T06:43:03;15.40;99.90
4922;DHT22;16625;53.624;10.106;2023-08-06T06:45:31;15.50;99.90
4922;DHT22;16625;53.624;10.106;2023-08-06T06:47:58;15.60;99.90
4922;DHT22;16625;53.624;10.106;2023-08-06T06:50:25;15.60;99.90
4922;DHT22;16625;53.624;10.106;2023-08-06T06:52:52;15.60;99.90
4922;DHT22;16625;53.624;10.106;2023-08-06T06:55:19;15.60;99.90
4922;DHT22;16625;53.624;10.106;2023-08-06T06:57:46;15.70;99.90
4922;DHT22;16625;53.624;10.106;2023-08-06T07:00:14;15.80;99.90
4922;DHT22;16625;53.624;10.106;2023-08-06T07:02:42;15.80;99.90
4922;DHT22;16625;53.624;10.106;2023-08-06T07:05:09;15.90;99.90
4922;DHT22;16625;53.624;10.106;2023-08-06T07:07:37;15.90;99.90
4922;DHT22;16625;53.624;10.106;2023-08-06T07:10:05;16.00;99.90
4922;DHT22;16625;53.624;10.106;2023-08-06T07:12:32;16.10;99.90
4922;DHT22;16625;53.624;10.106;2023-08-06T07:14:59;16.20;99.90
4922;DHT22;16625;53.624;10.106;2023-08-06T07:17:26;16.20;99.90
4922;DHT22;16625;53.624;10.106;2023-08-06T07:19:54;16.30;99.90
4922;DHT22;16625;53.624;10.106;2023-08-06T07:22:21;16.40;99.90
4922;DHT22;16625;53.624;10.106;2023-08-06T07:24:49;16.60;99.90
4922;DHT22;16625;53.624;10.106;2023-08-06T07:27:15;16.70;99.90
4922;DHT22;16625;53.624;10.106;2023-08-06T07:29:42;16.80;99.90
4922;DHT22;16625;53.624;10.106;2023-08-06T07:32:09;16.90;99.90
4922;DHT22;16625;53.624;10.106;2023-08-06T07:34:36;16.90;99.90
4922;DHT22;16625;53.624;10.106;2023-08-06T07:37:05;17.00;99.90
4922;DHT22;16625;53.624;10.106;2023-08-06T07:39:32;17.20;99.90
4922;DHT22;16625;53.624;10.106;2023-08-06T07:41:59;17.10;99.90
4922;DHT22;16625;53.624;10.106;2023-08-06T07:44:28;17.20;99.90
4922;DHT22;16625;53.624;10.106;2023-08-06T07:46:55;17.20;99.90
4922;DHT22;16625;53.624;10.106;2023-08-06T07:49:22;17.20;99.90
4922;DHT22;16625;53.624;10.106;2023-08-06T07:51:49;17.20;99.90
4922;DHT22;16625;53.624;10.106;2023-08-06T07:54:18;17.10;99.90
4922;DHT22;16625;53.624;10.106;2023-08-06T07:56:45;17.00;99.90
4922;DHT22;16625;53.624;10.106;2023-08-06T07:59:12;17.10;99.90
4922;DHT22;16625;53.624;10.106;2023-08-06T08:01:39;17.20;99.90
4922;DHT22;16625;53.624;10.106;2023-08-06T08:04:06;17.10;99.90
4922;DHT22;16625;53.624;10.106;2023-08-06T08:06:33;17.20;99.90
4922;DHT22;16625;53.624;10.106;2023-08-06T08:09:00;17.30;99.90
4922;DHT22;16625;53.624;10.106;2023-08-06T08:11:29;17.30;99.90
4922;DHT22;16625;53.624;10.106;2023-08-06T08:13:56;17.20;99.90
4922;DHT22;16625;53.624;10.106;2023-08-06T08:16:23;17.30;99.90
4922;DHT22;16625;53.624;10.106;2023-08-06T08:18:50;17.30;99.90
4922;DHT22;16625;53.624;10.106;2023-08-06T08:21:17;17.40;99.90
4922;DHT22;16625;53.624;10.106;2023-08-06T08:23:45;17.30;99.90
4922;DHT22;16625;53.624;10.106;2023-08-06T08:26:12;17.40;99.90
4922;DHT22;16625;53.624;10.106;2023-08-06T08:28:40;17.60;99.90
4922;DHT22;16625;53.624;10.106;2023-08-06T08:31:08;17.70;99.90
4922;DHT22;16625;53.624;10.106;2023-08-06T08:33:36;17.80;99.90
4922;DHT22;16625;53.624;10.106;2023-08-06T08:36:04;17.90;99.90
4922;DHT22;16625;53.624;10.106;2023-08-06T08:38:31;18.10;99.90
4922;DHT22;16625;53.624;10.106;2023-08-06T08:40:58;18.20;99.90
4922;DHT22;16625;53.624;10.106;2023-08-06T08:43:26;18.30;94.00
4922;DHT22;16625;53.624;10.106;2023-08-06T08:45:55;18.40;99.90
4922;DHT22;16625;53.624;10.106;2023-08-06T08:48:24;18.40;1.00
4922;DHT22;16625;53.624;10.106;2023-08-06T08:50:52;18.40;1.00
4922;DHT22;16625;53.624;10.106;2023-08-06T08:53:21;18.40;26.00
4922;DHT22;16625;53.624;10.106;2023-08-06T08:55:49;18.50;1.00
4922;DHT22;16625;53.624;10.106;2023-08-06T08:58:16;18.50;1.00
4922;DHT22;16625;53.624;10.106;2023-08-06T09:00:45;18.40;1.00
4922;DHT22;16625;53.624;10.106;2023-08-06T09:03:16;18.30;99.90
4922;DHT22;16625;53.624;10.106;2023-08-06T09:05:44;18.10;1.00
4922;DHT22;16625;53.624;10.106;2023-08-06T09:08:17;18.00;1.00
4922;DHT22;16625;53.624;10.106;2023-08-06T09:10:44;17.80;99.90
4922;DHT22;16625;53.624;10.106;2023-08-06T09:13:15;17.80;99.90
4922;DHT22;16625;53.624;10.106;2023-08-06T09:15:42;17.60;99.90
4922;DHT22;16625;53.624;10.106;2023-08-06T09:18:11;17.60;99.90
4922;DHT22;16625;53.624;10.106;2023-08-06T09:20:39;17.50;99.90
4922;DHT22;16625;53.624;10.106;2023-08-06T09:23:07;17.30;99.90
4922;DHT22;16625;53.624;10.106;2023-08-06T09:25:38;17.20;99.90
4922;DHT22;16625;53.624;10.106;2023-08-06T09:28:05;17.10;99.90
4922;DHT22;16625;53.624;10.106;2023-08-06T09:30:34;17.00;99.90
4922;DHT22;16625;53.624;10.106;2023-08-06T09:33:01;16.90;99.90
4922;DHT22;16625;53.624;10.106;2023-08-06T09:35:28;16.90;99.90
4922;DHT22;16625;53.624;10.106;2023-08-06T09:38:05;16.90;99.90
4922;DHT22;16625;53.624;10.106;2023-08-06T09:40:33;16.90;99.90
4922;DHT22;16625;53.624;10.106;2023-08-06T09:43:01;16.80;99.90
4922;DHT22;16625;53.624;10.106;2023-08-06T09:45:31;16.70;99.90
4922;DHT22;16625;53.624;10.106;2023-08-06T09:47:59;16.70;99.90
4922;DHT22;16625;53.624;10.106;2023-08-06T09:50:29;16.70;99.90
4922;DHT22;16625;53.624;10.106;2023-08-06T09:52:58;16.70;99.90
4922;DHT22;16625;53.624;10.106;2023-08-06T09:55:26;16.60;99.90
4922;DHT22;16625;53.624;10.106;2023-08-06T09:57:54;16.60;99.90
4922;DHT22;16625;53.624;10.106;2023-08-06T10:00:22;16.60;99.90
4922;DHT22;16625;53.624;10.106;2023-08-06T10:02:50;16.60;99.90
4922;DHT22;16625;53.624;10.106;2023-08-06T10:05:21;16.60;99.90
4922;DHT22;16625;53.624;10.106;2023-08-06T10:07:49;16.60;99.90
4922;DHT22;16625;53.624;10.106;2023-08-06T10:10:18;16.70;99.90
4922;DHT22;16625;53.624;10.106;2023-08-06T10:12:49;16.70;99.90
4922;DHT22;16625;53.624;10.106;2023-08-06T10:15:21;16.70;99.90
4922;DHT22;16625;53.624;10.106;2023-08-06T10:17:51;16.70;99.90
4922;DHT22;16625;53.624;10.106;2023-08-06T10:20:19;16.80;99.90
4922;DHT22;16625;53.624;10.106;2023-08-06T10:22:59;16.90;99.90
4922;DHT22;16625;53.624;10.106;2023-08-06T10:25:30;16.90;99.90
4922;DHT22;16625;53.624;10.106;2023-08-06T10:27:58;16.90;99.90
4922;DHT22;16625;53.624;10.106;2023-08-06T10:30:26;16.90;99.90
4922;DHT22;16625;53.624;10.106;2023-08-06T10:32:55;17.10;99.90
4922;DHT22;16625;53.624;10.106;2023-08-06T10:35:36;17.10;99.90
4922;DHT22;16625;53.624;10.106;2023-08-06T10:38:04;17.10;99.90
4922;DHT22;16625;53.624;10.106;2023-08-06T10:40:33;17.10;99.90
4922;DHT22;16625;53.624;10.106;2023-08-06T10:43:00;17.10;99.90
4922;DHT22;16625;53.624;10.106;2023-08-06T10:45:28;17.10;99.90
4922;DHT22;16625;53.624;10.106;2023-08-06T10:47:56;17.10;99.90
4922;DHT22;16625;53.624;10.106;2023-08-06T10:50:24;17.10;99.90
4922;DHT22;16625;53.624;10.106;2023-08-06T10:52:52;17.00;99.90
4922;DHT22;16625;53.624;10.106;2023-08-06T10:55:23;16.90;99.90
4922;DHT22;16625;53.624;10.106;2023-08-06T10:57:51;16.80;99.90
4922;DHT22;16625;53.624;10.106;2023-08-06T11:00:18;16.80;99.90
4922;DHT22;16625;53.624;10.106;2023-08-06T11:02:47;16.80;99.90
4922;DHT22;16625;53.624;10.106;2023-08-06T11:05:15;16.80;99.90
4922;DHT22;16625;53.624;10.106;2023-08-06T11:07:42;16.80;99.90
4922;DHT22;16625;53.624;10.106;2023-08-06T11:10:11;16.90;99.90
4922;DHT22;16625;53.624;10.106;2023-08-06T11:12:39;16.90;99.90
4922;DHT22;16625;53.624;10.106;2023-08-06T11:15:08;17.00;99.90
4922;DHT22;16625;53.624;10.106;2023-08-06T11:17:36;17.10;99.90
4922;DHT22;16625;53.624;10.106;2023-08-06T11:20:04;17.30;99.90
4922;DHT22;16625;53.624;10.106;2023-08-06T11:22:32;17.30;99.90
4922;DHT22;16625;53.624;10.106;2023-08-06T11:24:59;17.30;99.90
4922;DHT22;16625;53.624;10.106;2023-08-06T11:27:27;17.40;99.90
4922;DHT22;16625;53.624;10.106;2023-08-06T11:29:54;18.00;99.90
4922;DHT22;16625;53.624;10.106;2023-08-06T11:32:23;17.60;99.90
4922;DHT22;16625;53.624;10.106;2023-08-06T11:34:53;17.60;99.90
4922;DHT22;16625;53.624;10.106;2023-08-06T11:37:21;17.70;99.90
4922;DHT22;16625;53.624;10.106;2023-08-06T11:39:50;17.70;99.90
4922;DHT22;16625;53.624;10.106;2023-08-06T11:42:17;17.90;99.90
4922;DHT22;16625;53.624;10.106;2023-08-06T11:44:44;17.70;99.90
4922;DHT22;16625;53.624;10.106;2023-08-06T11:47:14;17.80;99.90
4922;DHT22;16625;53.624;10.106;2023-08-06T11:49:44;17.80;99.90
4922;DHT22;16625;53.624;10.106;2023-08-06T11:52:17;18.30;99.90
4922;DHT22;16625;53.624;10.106;2023-08-06T11:54:46;17.70;99.90
4922;DHT22;16625;53.624;10.106;2023-08-06T11:57:14;17.90;99.90
4922;DHT22;16625;53.624;10.106;2023-08-06T11:59:42;17.90;99.90
4922;DHT22;16625;53.624;10.106;2023-08-06T12:02:09;18.00;99.90
4922;DHT22;16625;53.624;10.106;2023-08-06T12:05:03;18.10;99.90
4922;DHT22;16625;53.624;10.106;2023-08-06T12:07:32;18.20;99.90
4922;DHT22;16625;53.624;10.106;2023-08-06T12:10:00;18.30;99.90
4922;DHT22;16625;53.624;10.106;2023-08-06T12:12:27;18.50;99.90
4922;DHT22;16625;53.624;10.106;2023-08-06T12:14:54;19.20;99.90
4922;DHT22;16625;53.624;10.106;2023-08-06T12:17:22;18.60;99.90
4922;DHT22;16625;53.624;10.106;2023-08-06T12:19:49;18.70;99.90
4922;DHT22;16625;53.624;10.106;2023-08-06T12:22:17;18.80;99.90
4922;DHT22;16625;53.624;10.106;2023-08-06T12:24:46;18.70;99.90
4922;DHT22;16625;53.624;10.106;2023-08-06T12:27:14;18.90;99.90
4922;DHT22;16625;53.624;10.106;2023-08-06T12:29:42;19.10;99.90
4922;DHT22;16625;53.624;10.106;2023-08-06T12:32:10;19.30;86.70
4922;DHT22;16625;53.624;10.106;2023-08-06T12:34:38;19.30;1.00
4922;DHT22;16625;53.624;10.106;2023-08-06T12:37:04;19.10;1.00
4922;DHT22;16625;53.624;10.106;2023-08-06T12:39:33;19.20;1.00
4922;DHT22;16625;53.624;10.106;2023-08-06T12:42:01;19.20;1.00
4922;DHT22;16625;53.624;10.106;2023-08-06T12:44:29;19.40;1.00
4922;DHT22;16625;53.624;10.106;2023-08-06T12:46:56;19.50;1.00
4922;DHT22;16625;53.624;10.106;2023-08-06T12:49:24;19.50;1.00
4922;DHT22;16625;53.624;10.106;2023-08-06T12:51:52;19.60;1.00
4922;DHT22;16625;53.624;10.106;2023-08-06T12:54:19;19.70;99.90
4922;DHT22;16625;53.624;10.106;2023-08-06T12:56:48;19.70;99.90
4922;DHT22;16625;53.624;10.106;2023-08-06T12:59:16;19.90;1.00
4922;DHT22;16625;53.624;10.106;2023-08-06T13:01:44;20.20;99.90
4922;DHT22;16625;53.624;10.106;2023-08-06T13:04:11;20.50;99.90
4922;DHT22;16625;53.624;10.106;2023-08-06T13:06:38;20.70;99.90
4922;DHT22;16625;53.624;10.106;2023-08-06T13:09:05;20.50;99.90
4922;DHT22;16625;53.624;10.106;2023-08-06T13:11:34;20.50;1.00
4922;DHT22;16625;53.624;10.106;2023-08-06T13:14:06;20.40;1.00
4922;DHT22;16625;53.624;10.106;2023-08-06T13:16:33;20.40;1.00
4922;DHT22;16625;53.624;10.106;2023-08-06T13:19:00;20.40;1.00
4922;DHT22;16625;53.624;10.106;2023-08-06T13:21:34;20.40;99.90
4922;DHT22;16625;53.624;10.106;2023-08-06T13:24:01;20.60;1.00
4922;DHT22;16625;53.624;10.106;2023-08-06T13:26:28;20.80;51.40
4922;DHT22;16625;53.624;10.106;2023-08-06T13:28:57;21.10;66.80
4922;DHT22;16625;53.624;10.106;2023-08-06T13:31:27;21.20;99.90
4922;DHT22;16625;53.624;10.106;2023-08-06T13:33:54;21.60;54.40
4922;DHT22;16625;53.624;10.106;2023-08-06T13:36:23;21.70;1.00
4922;DHT22;16625;53.624;10.106;2023-08-06T13:38:50;21.70;1.00
4922;DHT22;16625;53.624;10.106;2023-08-06T13:41:17;21.70;99.90
4922;DHT22;16625;53.624;10.106;2023-08-06T13:43:44;21.40;99.90
4922;DHT22;16625;53.624;10.106;2023-08-06T13:46:11;21.00;1.00
4922;DHT22;16625;53.624;10.106;2023-08-06T13:48:43;21.00;1.00
4922;DHT22;16625;53.624;10.106;2023-08-06T13:51:16;20.80;99.90
4922;DHT22;16625;53.624;10.106;2023-08-06T13:53:44;20.60;99.90
4922;DHT22;16625;53.624;10.106;2023-08-06T13:56:11;20.60;1.00
4922;DHT22;16625;53.624;10.106;2023-08-06T13:58:40;20.20;99.90
4922;DHT22;16625;53.624;10.106;2023-08-06T14:01:11;20.50;1.00
4922;DHT22;16625;53.624;10.106;2023-08-06T14:03:38;20.30;99.90
4922;DHT22;16625;53.624;10.106;2023-08-06T14:06:07;20.30;99.90
4922;DHT22;16625;53.624;10.106;2023-08-06T14:08:33;20.20;1.00
4922;DHT22;16625;53.624;10.106;2023-08-06T14:11:00;20.20;99.90
4922;DHT22;16625;53.624;10.106;2023-08-06T14:13:27;20.20;99.90
4922;DHT22;16625;53.624;10.106;2023-08-06T14:15:54;20.40;1.00
4922;DHT22;16625;53.624;10.106;2023-08-06T14:18:21;20.50;99.90
4922;DHT22;16625;53.624;10.106;2023-08-06T14:20:48;20.70;1.00
4922;DHT22;16625;53.624;10.106;2023-08-06T14:23:19;20.70;99.90
4922;DHT22;16625;53.624;10.106;2023-08-06T14:25:46;20.50;1.00
4922;DHT22;16625;53.624;10.106;2023-08-06T14:28:16;20.30;99.90
4922;DHT22;16625;53.624;10.106;2023-08-06T14:30:42;20.00;99.90
4922;DHT22;16625;53.624;10.106;2023-08-06T14:33:12;20.00;99.90
4922;DHT22;16625;53.624;10.106;2023-08-06T14:35:39;19.80;1.00
4922;DHT22;16625;53.624;10.106;2023-08-06T14:38:09;19.50;99.90
4922;DHT22;16625;53.624;10.106;2023-08-06T14:40:37;19.30;99.20
4922;DHT22;16625;53.624;10.106;2023-08-06T14:43:11;19.10;99.90
4922;DHT22;16625;53.624;10.106;2023-08-06T14:45:46;19.20;99.90
4922;DHT22;16625;53.624;10.106;2023-08-06T14:48:19;19.20;99.90
4922;DHT22;16625;53.624;10.106;2023-08-06T14:50:47;19.30;99.90
4922;DHT22;16625;53.624;10.106;2023-08-06T14:53:14;19.40;16.70
4922;DHT22;16625;53.624;10.106;2023-08-06T14:55:42;19.30;6.50
4922;DHT22;16625;53.624;10.106;2023-08-06T14:58:09;19.40;1.00
4922;DHT22;16625;53.624;10.106;2023-08-06T15:00:36;19.40;99.90
4922;DHT22;16625;53.624;10.106;2023-08-06T15:03:03;19.40;99.90
4922;DHT22;16625;53.624;10.106;2023-08-06T15:05:30;19.40;99.90
4922;DHT22;16625;53.624;10.106;2023-08-06T15:07:56;19.20;1.00
4922;DHT22;16625;53.624;10.106;2023-08-06T15:10:29;19.30;1.00
4922;DHT22;16625;53.624;10.106;2023-08-06T15:13:03;19.00;99.90
4922;DHT22;16625;53.624;10.106;2023-08-06T15:15:30;18.90;99.90
4922;DHT22;16625;53.624;10.106;2023-08-06T15:17:57;18.80;99.90
4922;DHT22;16625;53.624;10.106;2023-08-06T15:20:24;18.70;15.20
4922;DHT22;16625;53.624;10.106;2023-08-06T15:22:51;18.70;99.90
4922;DHT22;16625;53.624;10.106;2023-08-06T15:25:18;18.70;1.00
4922;DHT22;16625;53.624;10.106;2023-08-06T15:27:45;19.50;1.00
4922;DHT22;16625;53.624;10.106;2023-08-06T15:30:13;19.10;1.00
4922;DHT22;16625;53.624;10.106;2023-08-06T15:32:40;18.80;1.00
4922;DHT22;16625;53.624;10.106;2023-08-06T15:35:10;18.80;1.00
4922;DHT22;16625;53.624;10.106;2023-08-06T15:37:37;18.90;99.90